sensor_id;sensor_type;location;lat;lon;timestamp;noise_LAeq;noise_LA_min;noise_LA_max;noise_LA01;noise_LA95
76382;Laerm;65202;52.520;10.528;2023-03-14T00:00:16;44.65;33.59;56.51;;
76382;Laerm;65202;52.520;10.528;2023-03-14T00:02:44;44.38;33.93;56.35;;
76382;Laerm;65202;52.520;10.528;2023-03-14T00:05:12;44.88;35.15;56.58;;
76382;Laerm;65202;52.520;10.528;2023-03-14T00:07:39;45.01;34.24;56.27;;
76382;Laerm;65202;52.520;10.528;2023-03-14T00:10:12;44.42;34.33;56.83;;
76382;Laerm;65202;52.520;10.528;2023-03-14T00:12:41;44.31;33.98;56.57;;
76382;Laerm;65202;52.520;10.528;2023-03-14T00:15:10;44.48;33.09;56.79;;
76382;Laerm;65202;52.520;10.528;2023-03-14T00:17:38;44.69;33.24;56.49;;
76382;Laerm;65202;52.520;10.528;2023-03-14T00:20:06;44.42;33.53;56.53;;
76382;Laerm;65202;52.520;10.528;2023-03-14T00:22:38;44.18;33.30;55.99;;
76382;Laerm;65202;52.520;10.528;2023-03-14T00:25:08;44.07;32.04;56.59;;
76382;Laerm;65202;52.520;10.528;2023-03-14T00:27:36;44.49;31.84;56.56;;
76382;Laerm;65202;52.520;10.528;2023-03-14T00:30:05;44.99;32.07;56.38;;
76382;Laerm;65202;52.520;10.528;2023-03-14T00:32:34;44.32;32.22;56.59;;
76382;Laerm;65202;52.520;10.528;2023-03-14T00:35:02;45.19;34.18;56.55;;
76382;Laerm;65202;52.520;10.528;2023-03-14T00:37:30;44.61;31.91;56.82;;
76382;Laerm;65202;52.520;10.528;2023-03-14T00:39:57;44.54;33.41;56.41;;
76382;Laerm;65202;52.520;10.528;2023-03-14T00:42:25;44.75;33.23;57.13;;
76382;Laerm;65202;52.520;10.528;2023-03-14T00:44:53;44.86;34.02;56.12;;
76382;Laerm;65202;52.520;10.528;2023-03-14T00:47:20;44.28;32.93;56.28;;
76382;Laerm;65202;52.520;10.528;2023-03-14T00:49:47;44.36;33.96;56.28;;
76382;Laerm;65202;52.520;10.528;2023-03-14T00:52:14;45.25;33.57;56.35;;
76382;Laerm;65202;52.520;10.528;2023-03-14T00:54:42;44.44;33.68;56.36;;
76382;Laerm;65202;52.520;10.528;2023-03-14T00:57:09;44.46;33.56;56.22;;
76382;Laerm;65202;52.520;10.528;2023-03-14T00:59:36;44.91;34.23;56.44;;
76382;Laerm;65202;52.520;10.528;2023-03-14T01:02:03;44.42;33.81;56.04;;
76382;Laerm;65202;52.520;10.528;2023-03-14T01:04:30;44.68;35.11;55.85;;
76382;Laerm;65202;52.520;10.528;2023-03-14T01:06:58;44.83;34.37;56.38;;
76382;Laerm;65202;52.520;10.528;2023-03-14T01:09:25;44.77;33.86;56.67;;
76382;Laerm;65202;52.520;10.528;2023-03-14T01:11:52;45.24;35.15;56.86;;
76382;Laerm;65202;52.520;10.528;2023-03-14T01:14:19;45.38;35.36;56.89;;
76382;Laerm;65202;52.520;10.528;2023-03-14T01:16:47;44.89;34.69;56.38;;
76382;Laerm;65202;52.520;10.528;2023-03-14T01:19:14;44.81;34.81;56.60;;
76382;Laerm;65202;52.520;10.528;2023-03-14T01:21:41;44.59;33.51;56.37;;
76382;Laerm;65202;52.520;10.528;2023-03-14T01:24:11;44.72;32.95;57.27;;
76382;Laerm;65202;52.520;10.528;2023-03-14T01:26:38;44.62;33.63;56.62;;
76382;Laerm;65202;52.520;10.528;2023-03-14T01:29:05;45.06;34.77;56.86;;
76382;Laerm;65202;52.520;10.528;2023-03-14T01:31:33;44.80;33.70;56.36;;
76382;Laerm;65202;52.520;10.528;2023-03-14T01:34:00;45.05;33.36;56.49;;
76382;Laerm;65202;52.520;10.528;2023-03-14T01:36:27;45.00;34.39;56.79;;
76382;Laerm;65202;52.520;10.528;2023-03-14T01:38:57;44.80;34.63;57.07;;
76382;Laerm;65202;52.520;10.528;2023-03-14T01:41:25;44.79;34.24;56.64;;
76382;Laerm;65202;52.520;10.528;2023-03-14T01:43:53;44.74;32.90;56.81;;
76382;Laerm;65202;52.520;10.528;2023-03-14T01:46:26;44.57;33.73;56.82;;
76382;Laerm;65202;52.520;10.528;2023-03-14T01:49:06;44.35;33.01;56.26;;
76382;Laerm;65202;52.520;10.528;2023-03-14T01:51:42;44.64;34.80;56.25;;
76382;Laerm;65202;52.520;10.528;2023-03-14T01:54:23;44.41;33.79;56.36;;
76382;Laerm;65202;52.520;10.528;2023-03-14T01:57:04;45.15;35.57;56.14;;
76382;Laerm;65202;52.520;10.528;2023-03-14T01:59:32;44.55;35.26;56.85;;
76382;Laerm;65202;52.520;10.528;2023-03-14T02:02:02;45.17;34.82;56.61;;
76382;Laerm;65202;52.520;10.528;2023-03-14T02:04:34;44.89;35.28;56.55;;
76382;Laerm;65202;52.520;10.528;2023-03-14T02:07:26;43.94;34.41;55.92;;
76382;Laerm;65202;52.520;10.528;2023-03-14T02:09:58;44.91;35.78;56.79;;
76382;Laerm;65202;52.520;10.528;2023-03-14T02:12:27;44.80;34.30;56.32;;
76382;Laerm;65202;52.520;10.528;2023-03-14T02:14:54;44.97;35.03;56.73;;
76382;Laerm;65202;52.520;10.528;2023-03-14T02:17:23;45.40;35.34;56.46;;
76382;Laerm;65202;52.520;10.528;2023-03-14T02:20:09;44.84;35.17;56.42;;
76382;Laerm;65202;52.520;10.528;2023-03-14T02:22:42;44.64;35.38;56.32;;
76382;Laerm;65202;52.520;10.528;2023-03-14T02:25:28;43.73;32.98;56.75;;
76382;Laerm;65202;52.520;10.528;2023-03-14T02:27:58;44.04;32.69;56.48;;
76382;Laerm;65202;52.520;10.528;2023-03-14T02:30:30;45.76;34.24;59.77;;
76382;Laerm;65202;52.520;10.528;2023-03-14T02:33:09;43.96;34.22;56.38;;
76382;Laerm;65202;52.520;10.528;2023-03-14T02:39:08;43.82;35.20;56.35;;
76382;Laerm;65202;52.520;10.528;2023-03-14T02:41:38;44.71;34.93;55.90;;
76382;Laerm;65202;52.520;10.528;2023-03-14T02:44:06;44.66;35.22;56.46;;
76382;Laerm;65202;52.520;10.528;2023-03-14T02:46:33;45.09;36.26;56.56;;
76382;Laerm;65202;52.520;10.528;2023-03-14T02:49:08;44.38;35.80;56.17;;
76382;Laerm;65202;52.520;10.528;2023-03-14T02:51:39;45.14;36.50;56.52;;
76382;Laerm;65202;52.520;10.528;2023-03-14T02:54:07;45.55;36.93;56.94;;
76382;Laerm;65202;52.520;10.528;2023-03-14T02:56:35;45.44;37.00;56.75;;
76382;Laerm;65202;52.520;10.528;2023-03-14T02:59:04;46.01;38.25;56.76;;
76382;Laerm;65202;52.520;10.528;2023-03-14T03:01:31;45.81;37.76;56.31;;
76382;Laerm;65202;52.520;10.528;2023-03-14T03:03:58;46.41;37.35;56.43;;
76382;Laerm;65202;52.520;10.528;2023-03-14T03:06:26;45.22;36.85;56.12;;
76382;Laerm;65202;52.520;10.528;2023-03-14T03:08:53;45.47;37.11;56.73;;
76382;Laerm;65202;52.520;10.528;2023-03-14T03:11:20;45.44;36.76;56.47;;
76382;Laerm;65202;52.520;10.528;2023-03-14T03:13:47;45.75;36.68;56.62;;
76382;Laerm;65202;52.520;10.528;2023-03-14T03:16:15;44.76;35.93;56.14;;
76382;Laerm;65202;52.520;10.528;2023-03-14T03:18:42;44.89;35.66;56.77;;
76382;Laerm;65202;52.520;10.528;2023-03-14T03:21:09;45.18;35.83;56.62;;
76382;Laerm;65202;52.520;10.528;2023-03-14T03:23:36;45.41;35.67;56.99;;
76382;Laerm;65202;52.520;10.528;2023-03-14T03:26:04;45.24;35.05;56.55;;
76382;Laerm;65202;52.520;10.528;2023-03-14T03:28:31;45.03;35.54;57.31;;
76382;Laerm;65202;52.520;10.528;2023-03-14T03:30:58;45.46;36.12;56.65;;
76382;Laerm;65202;52.520;10.528;2023-03-14T03:33:25;44.68;34.05;56.68;;
76382;Laerm;65202;52.520;10.528;2023-03-14T03:35:53;45.29;34.73;56.57;;
76382;Laerm;65202;52.520;10.528;2023-03-14T03:38:20;48.49;36.28;64.78;;
76382;Laerm;65202;52.520;10.528;2023-03-14T03:40:47;44.56;33.85;56.41;;
76382;Laerm;65202;52.520;10.528;2023-03-14T03:43:15;44.80;34.44;56.34;;
76382;Laerm;65202;52.520;10.528;2023-03-14T03:45:42;45.43;36.00;56.36;;
76382;Laerm;65202;52.520;10.528;2023-03-14T03:48:09;44.68;35.23;59.24;;
76382;Laerm;65202;52.520;10.528;2023-03-14T03:50:37;45.16;34.89;56.43;;
76382;Laerm;65202;52.520;10.528;2023-03-14T03:53:04;44.83;34.95;58.21;;
76382;Laerm;65202;52.520;10.528;2023-03-14T03:55:31;45.83;35.78;59.23;;
76382;Laerm;65202;52.520;10.528;2023-03-14T03:57:58;44.98;35.06;57.32;;
76382;Laerm;65202;52.520;10.528;2023-03-14T04:00:25;44.78;34.99;56.64;;
76382;Laerm;65202;52.520;10.528;2023-03-14T04:02:53;49.01;36.32;65.39;;
76382;Laerm;65202;52.520;10.528;2023-03-14T04:05:20;44.81;35.52;56.47;;
76382;Laerm;65202;52.520;10.528;2023-03-14T04:07:47;45.55;37.17;56.43;;
76382;Laerm;65202;52.520;10.528;2023-03-14T04:10:15;45.18;36.35;56.78;;
76382;Laerm;65202;52.520;10.528;2023-03-14T04:12:42;45.08;36.78;56.60;;
76382;Laerm;65202;52.520;10.528;2023-03-14T04:15:09;45.04;36.98;56.06;;
76382;Laerm;65202;52.520;10.528;2023-03-14T04:17:37;44.89;37.03;56.68;;
76382;Laerm;65202;52.520;10.528;2023-03-14T04:20:05;45.62;37.70;56.36;;
76382;Laerm;65202;52.520;10.528;2023-03-14T04:22:32;45.10;36.77;56.32;;
76382;Laerm;65202;52.520;10.528;2023-03-14T04:24:59;46.34;37.83;56.71;;
76382;Laerm;65202;52.520;10.528;2023-03-14T04:27:26;46.14;38.17;56.77;;
76382;Laerm;65202;52.520;10.528;2023-03-14T04:29:54;46.48;39.45;56.00;;
76382;Laerm;65202;52.520;10.528;2023-03-14T04:32:21;45.86;37.96;56.42;;
76382;Laerm;65202;52.520;10.528;2023-03-14T04:34:48;46.53;38.75;57.98;;
76382;Laerm;65202;52.520;10.528;2023-03-14T04:37:15;45.86;37.64;56.65;;
76382;Laerm;65202;52.520;10.528;2023-03-14T04:39:43;46.78;38.88;56.99;;
76382;Laerm;65202;52.520;10.528;2023-03-14T04:42:10;47.11;39.76;56.27;;
76382;Laerm;65202;52.520;10.528;2023-03-14T04:44:37;45.90;38.46;56.26;;
76382;Laerm;65202;52.520;10.528;2023-03-14T04:47:04;46.92;38.02;63.30;;
76382;Laerm;65202;52.520;10.528;2023-03-14T04:49:31;46.82;40.11;56.74;;
76382;Laerm;65202;52.520;10.528;2023-03-14T04:51:58;47.01;40.08;56.75;;
76382;Laerm;65202;52.520;10.528;2023-03-14T04:54:26;47.45;39.55;56.69;;
76382;Laerm;65202;52.520;10.528;2023-03-14T04:56:53;47.47;40.27;56.90;;
76382;Laerm;65202;52.520;10.528;2023-03-14T04:59:20;46.62;39.83;56.49;;
76382;Laerm;65202;52.520;10.528;2023-03-14T05:01:47;45.75;38.56;56.27;;
76382;Laerm;65202;52.520;10.528;2023-03-14T05:04:16;46.48;37.40;56.82;;
76382;Laerm;65202;52.520;10.528;2023-03-14T05:06:44;47.13;38.39;56.82;;
76382;Laerm;65202;52.520;10.528;2023-03-14T05:09:11;48.63;40.03;60.19;;
76382;Laerm;65202;52.520;10.528;2023-03-14T05:11:38;48.37;38.48;64.13;;
76382;Laerm;65202;52.520;10.528;2023-03-14T05:14:05;47.06;40.31;56.73;;
76382;Laerm;65202;52.520;10.528;2023-03-14T05:16:33;46.94;41.37;56.43;;
76382;Laerm;65202;52.520;10.528;2023-03-14T05:19:00;48.70;38.78;63.05;;
76382;Laerm;65202;52.520;10.528;2023-03-14T05:21:29;46.59;40.34;56.38;;
76382;Laerm;65202;52.520;10.528;2023-03-14T05:23:58;46.24;39.57;57.24;;
76382;Laerm;65202;52.520;10.528;2023-03-14T05:26:25;46.21;39.25;56.65;;
76382;Laerm;65202;52.520;10.528;2023-03-14T05:28:52;49.05;41.79;61.70;;
76382;Laerm;65202;52.520;10.528;2023-03-14T05:31:19;47.38;40.79;60.51;;
76382;Laerm;65202;52.520;10.528;2023-03-14T05:33:46;50.65;40.81;64.79;;
76382;Laerm;65202;52.520;10.528;2023-03-14T05:36:13;48.44;40.74;58.01;;
76382;Laerm;65202;52.520;10.528;2023-03-14T05:38:41;49.26;39.73;61.81;;
76382;Laerm;65202;52.520;10.528;2023-03-14T05:41:08;48.02;41.05;57.94;;
76382;Laerm;65202;52.520;10.528;2023-03-14T05:43:35;49.22;42.04;58.34;;
76382;Laerm;65202;52.520;10.528;2023-03-14T05:46:02;48.01;42.31;57.06;;
76382;Laerm;65202;52.520;10.528;2023-03-14T05:48:30;48.30;41.10;59.84;;
76382;Laerm;65202;52.520;10.528;2023-03-14T05:50:57;50.51;42.18;65.24;;
76382;Laerm;65202;52.520;10.528;2023-03-14T05:53:26;50.61;40.26;71.21;;
76382;Laerm;65202;52.520;10.528;2023-03-14T05:55:54;48.02;41.87;56.47;;
76382;Laerm;65202;52.520;10.528;2023-03-14T05:58:24;48.08;41.83;59.67;;
76382;Laerm;65202;52.520;10.528;2023-03-14T06:00:51;50.02;40.50;64.91;;
76382;Laerm;65202;52.520;10.528;2023-03-14T06:03:18;46.02;39.10;56.71;;
76382;Laerm;65202;52.520;10.528;2023-03-14T06:05:45;47.26;40.93;58.09;;
76382;Laerm;65202;52.520;10.528;2023-03-14T06:08:12;48.29;41.05;62.81;;
76382;Laerm;65202;52.520;10.528;2023-03-14T06:10:42;49.65;41.89;63.35;;
76382;Laerm;65202;52.520;10.528;2023-03-14T06:13:09;51.01;41.46;64.88;;
76382;Laerm;65202;52.520;10.528;2023-03-14T06:15:37;50.55;42.68;63.34;;
76382;Laerm;65202;52.520;10.528;2023-03-14T06:18:04;48.24;42.42;57.43;;
76382;Laerm;65202;52.520;10.528;2023-03-14T06:20:31;49.14;43.06;65.20;;
76382;Laerm;65202;52.520;10.528;2023-03-14T06:23:00;48.14;42.18;56.97;;
76382;Laerm;65202;52.520;10.528;2023-03-14T06:25:27;51.61;43.93;62.42;;
76382;Laerm;65202;52.520;10.528;2023-03-14T06:27:54;49.39;41.84;68.30;;
76382;Laerm;65202;52.520;10.528;2023-03-14T06:30:21;53.06;43.13;71.82;;
76382;Laerm;65202;52.520;10.528;2023-03-14T06:32:48;50.67;42.29;65.30;;
76382;Laerm;65202;52.520;10.528;2023-03-14T06:35:16;50.68;41.46;65.02;;
76382;Laerm;65202;52.520;10.528;2023-03-14T06:37:43;50.23;42.65;62.29;;
76382;Laerm;65202;52.520;10.528;2023-03-14T06:40:11;51.68;42.85;71.16;;
76382;Laerm;65202;52.520;10.528;2023-03-14T06:42:45;49.76;41.91;62.37;;
76382;Laerm;65202;52.520;10.528;2023-03-14T06:45:13;50.23;43.92;66.67;;
76382;Laerm;65202;52.520;10.528;2023-03-14T06:47:40;49.69;42.29;63.47;;
76382;Laerm;65202;52.520;10.528;2023-03-14T06:50:09;47.80;43.15;57.88;;
76382;Laerm;65202;52.520;10.528;2023-03-14T06:52:37;48.72;42.48;58.36;;
76382;Laerm;65202;52.520;10.528;2023-03-14T06:55:05;49.32;43.51;60.98;;
76382;Laerm;65202;52.520;10.528;2023-03-14T06:57:32;51.83;44.15;64.00;;
76382;Laerm;65202;52.520;10.528;2023-03-14T06:59:59;51.37;43.40;63.82;;
76382;Laerm;65202;52.520;10.528;2023-03-14T07:02:27;50.18;42.99;62.35;;
76382;Laerm;65202;52.520;10.528;2023-03-14T07:05:09;51.20;42.78;64.74;;
76382;Laerm;65202;52.520;10.528;2023-03-14T07:07:37;50.53;41.79;71.17;;
76382;Laerm;65202;52.520;10.528;2023-03-14T07:10:05;53.48;41.73;67.94;;
76382;Laerm;65202;52.520;10.528;2023-03-14T07:12:32;48.99;41.12;60.52;;
76382;Laerm;65202;52.520;10.528;2023-03-14T07:14:59;49.81;40.57;64.92;;
76382;Laerm;65202;52.520;10.528;2023-03-14T07:17:43;48.87;40.54;61.11;;
76382;Laerm;65202;52.520;10.528;2023-03-14T07:20:10;49.17;41.52;58.74;;
76382;Laerm;65202;52.520;10.528;2023-03-14T07:22:37;48.60;41.20;65.14;;
76382;Laerm;65202;52.520;10.528;2023-03-14T07:25:05;48.92;41.42;71.22;;
76382;Laerm;65202;52.520;10.528;2023-03-14T07:27:32;49.74;42.06;62.63;;
76382;Laerm;65202;52.520;10.528;2023-03-14T07:30:00;47.16;39.88;57.84;;
76382;Laerm;65202;52.520;10.528;2023-03-14T07:32:27;63.44;46.10;94.60;;
76382;Laerm;65202;52.520;10.528;2023-03-14T07:34:54;47.63;40.79;63.48;;
76382;Laerm;65202;52.520;10.528;2023-03-14T07:37:21;47.74;40.52;62.01;;
76382;Laerm;65202;52.520;10.528;2023-03-14T07:39:48;57.98;41.85;88.82;;
76382;Laerm;65202;52.520;10.528;2023-03-14T07:42:16;49.20;40.83;61.96;;
76382;Laerm;65202;52.520;10.528;2023-03-14T07:44:43;52.20;42.49;67.77;;
76382;Laerm;65202;52.520;10.528;2023-03-14T07:47:10;73.93;41.15;105.33;;
76382;Laerm;65202;52.520;10.528;2023-03-14T07:49:38;53.71;43.51;65.63;;
76382;Laerm;65202;52.520;10.528;2023-03-14T07:52:05;54.24;43.97;74.19;;
76382;Laerm;65202;52.520;10.528;2023-03-14T07:54:32;50.85;44.07;62.64;;
76382;Laerm;65202;52.520;10.528;2023-03-14T07:57:00;48.79;41.09;65.35;;
76382;Laerm;65202;52.520;10.528;2023-03-14T07:59:27;48.23;40.60;59.66;;
76382;Laerm;65202;52.520;10.528;2023-03-14T08:01:55;51.68;41.93;70.33;;
76382;Laerm;65202;52.520;10.528;2023-03-14T08:04:22;48.64;40.99;61.71;;
76382;Laerm;65202;52.520;10.528;2023-03-14T08:06:49;49.82;42.99;64.73;;
76382;Laerm;65202;52.520;10.528;2023-03-14T08:09:16;46.94;40.70;56.50;;
76382;Laerm;65202;52.520;10.528;2023-03-14T08:11:43;48.47;40.59;63.20;;
76382;Laerm;65202;52.520;10.528;2023-03-14T08:14:10;47.26;40.80;59.53;;
76382;Laerm;65202;52.520;10.528;2023-03-14T08:16:38;49.69;41.80;76.71;;
76382;Laerm;65202;52.520;10.528;2023-03-14T08:19:05;46.52;40.33;56.40;;
76382;Laerm;65202;52.520;10.528;2023-03-14T08:21:32;47.79;41.30;59.65;;
76382;Laerm;65202;52.520;10.528;2023-03-14T08:23:59;48.16;40.27;62.17;;
76382;Laerm;65202;52.520;10.528;2023-03-14T08:26:27;50.02;41.07;69.29;;
76382;Laerm;65202;52.520;10.528;2023-03-14T08:28:55;49.53;40.27;60.63;;
76382;Laerm;65202;52.520;10.528;2023-03-14T08:31:22;49.13;40.98;62.04;;
76382;Laerm;65202;52.520;10.528;2023-03-14T08:33:49;50.49;39.85;62.49;;
76382;Laerm;65202;52.520;10.528;2023-03-14T08:36:19;46.19;39.43;56.83;;
76382;Laerm;65202;52.520;10.528;2023-03-14T08:38:50;52.62;38.22;68.37;;
76382;Laerm;65202;52.520;10.528;2023-03-14T08:41:17;49.73;39.08;63.11;;
76382;Laerm;65202;52.520;10.528;2023-03-14T08:43:44;50.59;39.61;68.91;;
76382;Laerm;65202;52.520;10.528;2023-03-14T08:46:12;46.79;38.80;56.48;;
76382;Laerm;65202;52.520;10.528;2023-03-14T08:48:39;46.79;38.26;57.44;;
76382;Laerm;65202;52.520;10.528;2023-03-14T08:51:12;49.35;39.23;58.40;;
76382;Laerm;65202;52.520;10.528;2023-03-14T08:53:41;51.75;40.25;62.44;;
76382;Laerm;65202;52.520;10.528;2023-03-14T08:56:09;51.63;39.76;67.86;;
76382;Laerm;65202;52.520;10.528;2023-03-14T08:58:37;48.85;39.43;61.35;;
76382;Laerm;65202;52.520;10.528;2023-03-14T09:01:06;46.59;37.72;56.72;;
76382;Laerm;65202;52.520;10.528;2023-03-14T09:03:35;48.29;38.55;60.24;;
76382;Laerm;65202;52.520;10.528;2023-03-14T09:06:04;48.23;39.20;59.52;;
76382;Laerm;65202;52.520;10.528;2023-03-14T09:08:32;47.69;39.98;56.86;;
76382;Laerm;65202;52.520;10.528;2023-03-14T09:11:00;47.01;38.34;56.82;;
76382;Laerm;65202;52.520;10.528;2023-03-14T09:13:27;47.63;40.29;57.26;;
76382;Laerm;65202;52.520;10.528;2023-03-14T09:15:57;46.80;38.84;56.47;;
76382;Laerm;65202;52.520;10.528;2023-03-14T09:18:24;47.08;38.71;58.24;;
76382;Laerm;65202;52.520;10.528;2023-03-14T09:20:51;47.92;39.08;61.88;;
76382;Laerm;65202;52.520;10.528;2023-03-14T09:23:19;48.45;38.57;63.72;;
76382;Laerm;65202;52.520;10.528;2023-03-14T09:25:46;46.39;38.86;55.01;;
76382;Laerm;65202;52.520;10.528;2023-03-14T09:28:13;46.33;39.73;56.75;;
76382;Laerm;65202;52.520;10.528;2023-03-14T09:30:40;46.35;40.05;59.81;;
76382;Laerm;65202;52.520;10.528;2023-03-14T09:33:07;48.54;39.26;63.68;;
76382;Laerm;65202;52.520;10.528;2023-03-14T09:35:35;45.44;38.48;55.81;;
76382;Laerm;65202;52.520;10.528;2023-03-14T09:38:02;48.62;38.73;64.70;;
76382;Laerm;65202;52.520;10.528;2023-03-14T09:40:34;48.35;41.08;61.72;;
76382;Laerm;65202;52.520;10.528;2023-03-14T09:43:02;53.27;39.84;66.37;;
76382;Laerm;65202;52.520;10.528;2023-03-14T09:45:36;46.93;40.75;61.24;;
76382;Laerm;65202;52.520;10.528;2023-03-14T09:48:14;52.18;41.34;66.84;;
76382;Laerm;65202;52.520;10.528;2023-03-14T09:50:54;48.94;40.73;62.51;;
76382;Laerm;65202;52.520;10.528;2023-03-14T09:53:40;47.02;40.56;58.55;;
76382;Laerm;65202;52.520;10.528;2023-03-14T09:56:17;48.37;39.64;61.65;;
76382;Laerm;65202;52.520;10.528;2023-03-14T09:58:54;48.44;39.95;61.61;;
76382;Laerm;65202;52.520;10.528;2023-03-14T10:01:29;46.98;39.09;57.62;;
76382;Laerm;65202;52.520;10.528;2023-03-14T10:04:10;47.41;38.73;64.72;;
76382;Laerm;65202;52.520;10.528;2023-03-14T10:06:40;51.24;42.05;64.26;;
76382;Laerm;65202;52.520;10.528;2023-03-14T10:09:20;47.98;41.01;59.32;;
76382;Laerm;65202;52.520;10.528;2023-03-14T10:11:56;52.24;45.57;64.07;;
76382;Laerm;65202;52.520;10.528;2023-03-14T10:14:37;53.07;47.05;65.47;;
76382;Laerm;65202;52.520;10.528;2023-03-14T10:17:11;52.99;45.93;61.65;;
76382;Laerm;65202;52.520;10.528;2023-03-14T10:19:59;53.29;45.09;60.30;;
76382;Laerm;65202;52.520;10.528;2023-03-14T10:22:30;49.23;42.28;60.49;;
76382;Laerm;65202;52.520;10.528;2023-03-14T10:25:25;52.33;39.90;70.10;;
76382;Laerm;65202;52.520;10.528;2023-03-14T10:27:52;51.94;40.60;64.31;;
76382;Laerm;65202;52.520;10.528;2023-03-14T10:30:45;50.15;43.02;64.36;;
76382;Laerm;65202;52.520;10.528;2023-03-14T10:35:46;50.93;43.26;64.71;;
76382;Laerm;65202;52.520;10.528;2023-03-14T10:38:18;51.10;41.97;63.30;;
76382;Laerm;65202;52.520;10.528;2023-03-14T10:40:49;47.30;40.28;59.47;;
76382;Laerm;65202;52.520;10.528;2023-03-14T10:43:22;51.29;40.61;74.19;;
76382;Laerm;65202;52.520;10.528;2023-03-14T10:46:00;52.92;47.55;64.27;;
76382;Laerm;65202;52.520;10.528;2023-03-14T10:48:38;52.26;47.06;63.86;;
76382;Laerm;65202;52.520;10.528;2023-03-14T10:54:00;51.11;41.84;73.29;;
76382;Laerm;65202;52.520;10.528;2023-03-14T10:56:35;47.62;39.00;66.31;;
76382;Laerm;65202;52.520;10.528;2023-03-14T10:59:12;48.71;40.52;62.73;;
76382;Laerm;65202;52.520;10.528;2023-03-14T11:05:24;45.45;39.03;56.77;;
76382;Laerm;65202;52.520;10.528;2023-03-14T11:08:01;46.40;40.33;57.47;;
76382;Laerm;65202;52.520;10.528;2023-03-14T11:10:42;46.30;40.50;54.62;;
76382;Laerm;65202;52.520;10.528;2023-03-14T11:16:14;52.79;40.15;65.96;;
76382;Laerm;65202;52.520;10.528;2023-03-14T11:21:49;46.61;39.83;62.23;;
76382;Laerm;65202;52.520;10.528;2023-03-14T11:24:46;53.03;41.76;69.73;;
76382;Laerm;65202;52.520;10.528;2023-03-14T11:27:41;54.53;41.26;68.62;;
76382;Laerm;65202;52.520;10.528;2023-03-14T11:30:30;53.87;41.01;66.26;;
76382;Laerm;65202;52.520;10.528;2023-03-14T11:35:53;50.58;40.33;63.39;;
76382;Laerm;65202;52.520;10.528;2023-03-14T11:38:43;53.80;42.03;73.21;;
76382;Laerm;65202;52.520;10.528;2023-03-14T11:41:43;52.21;40.88;69.06;;
76382;Laerm;65202;52.520;10.528;2023-03-14T11:44:37;47.31;40.21;57.96;;
76382;Laerm;65202;52.520;10.528;2023-03-14T11:47:17;48.84;40.44;63.48;;
76382;Laerm;65202;52.520;10.528;2023-03-14T11:53:04;50.44;41.72;66.77;;
76382;Laerm;65202;52.520;10.528;2023-03-14T11:55:36;53.23;43.42;69.51;;
76382;Laerm;65202;52.520;10.528;2023-03-14T11:58:26;50.09;41.52;66.20;;
76382;Laerm;65202;52.520;10.528;2023-03-14T12:00:56;51.16;43.26;67.57;;
76382;Laerm;65202;52.520;10.528;2023-03-14T12:03:46;56.13;44.82;63.92;;
76382;Laerm;65202;52.520;10.528;2023-03-14T12:06:50;58.35;47.54;73.81;;
76382;Laerm;65202;52.520;10.528;2023-03-14T12:09:21;54.27;43.53;69.10;;
76382;Laerm;65202;52.520;10.528;2023-03-14T12:12:02;51.79;43.09;68.33;;
76382;Laerm;65202;52.520;10.528;2023-03-14T12:14:34;53.77;43.28;69.53;;
76382;Laerm;65202;52.520;10.528;2023-03-14T12:17:26;50.97;46.13;57.15;;
76382;Laerm;65202;52.520;10.528;2023-03-14T12:20:18;52.00;42.72;66.60;;
76382;Laerm;65202;52.520;10.528;2023-03-14T12:22:50;52.21;42.48;70.11;;
76382;Laerm;65202;52.520;10.528;2023-03-14T12:25:26;54.49;45.71;72.23;;
76382;Laerm;65202;52.520;10.528;2023-03-14T12:30:36;51.09;43.21;69.96;;
76382;Laerm;65202;52.520;10.528;2023-03-14T12:35:48;48.49;42.16;56.97;;
76382;Laerm;65202;52.520;10.528;2023-03-14T12:38:47;50.62;43.35;66.57;;
76382;Laerm;65202;52.520;10.528;2023-03-14T12:47:26;50.14;43.70;59.53;;
76382;Laerm;65202;52.520;10.528;2023-03-14T12:50:12;51.26;41.02;65.72;;
76382;Laerm;65202;52.520;10.528;2023-03-14T12:53:31;49.56;39.62;64.15;;
76382;Laerm;65202;52.520;10.528;2023-03-14T12:56:28;46.76;40.04;58.51;;
76382;Laerm;65202;52.520;10.528;2023-03-14T12:59:28;51.60;41.06;69.04;;
76382;Laerm;65202;52.520;10.528;2023-03-14T13:04:49;51.35;41.60;66.09;;
76382;Laerm;65202;52.520;10.528;2023-03-14T13:07:35;46.90;40.64;69.00;;
76382;Laerm;65202;52.520;10.528;2023-03-14T13:13:09;45.92;39.32;69.35;;
76382;Laerm;65202;52.520;10.528;2023-03-14T13:15:44;50.45;40.48;67.55;;
76382;Laerm;65202;52.520;10.528;2023-03-14T13:18:17;47.77;39.60;67.73;;
76382;Laerm;65202;52.520;10.528;2023-03-14T13:20:53;49.99;41.00;65.82;;
76382;Laerm;65202;52.520;10.528;2023-03-14T13:23:31;44.48;39.09;65.31;;
76382;Laerm;65202;52.520;10.528;2023-03-14T13:26:00;47.48;40.89;59.77;;
76382;Laerm;65202;52.520;10.528;2023-03-14T13:28:30;47.13;41.58;65.40;;
76382;Laerm;65202;52.520;10.528;2023-03-14T13:31:02;52.73;40.93;70.69;;
76382;Laerm;65202;52.520;10.528;2023-03-14T13:33:33;48.24;37.97;65.67;;
76382;Laerm;65202;52.520;10.528;2023-03-14T13:36:05;48.86;40.89;65.02;;
76382;Laerm;65202;52.520;10.528;2023-03-14T13:38:35;50.19;43.39;59.42;;
76382;Laerm;65202;52.520;10.528;2023-03-14T13:41:07;50.03;41.51;62.76;;
76382;Laerm;65202;52.520;10.528;2023-03-14T13:43:43;46.89;41.04;63.99;;
76382;Laerm;65202;52.520;10.528;2023-03-14T13:46:19;46.39;40.44;67.82;;
76382;Laerm;65202;52.520;10.528;2023-03-14T13:48:50;53.41;39.53;68.68;;
76382;Laerm;65202;52.520;10.528;2023-03-14T13:51:21;44.73;39.52;58.96;;
76382;Laerm;65202;52.520;10.528;2023-03-14T13:53:54;43.72;38.47;63.62;;
76382;Laerm;65202;52.520;10.528;2023-03-14T13:56:26;43.79;37.40;55.26;;
76382;Laerm;65202;52.520;10.528;2023-03-14T13:58:54;44.59;38.94;61.66;;
76382;Laerm;65202;52.520;10.528;2023-03-14T14:01:34;43.95;38.14;54.59;;
76382;Laerm;65202;52.520;10.528;2023-03-14T14:04:09;46.14;38.61;60.26;;
76382;Laerm;65202;52.520;10.528;2023-03-14T14:06:57;51.88;38.33;67.95;;
76382;Laerm;65202;52.520;10.528;2023-03-14T14:09:38;44.47;38.39;63.83;;
76382;Laerm;65202;52.520;10.528;2023-03-14T14:12:17;51.87;39.90;64.77;;
76382;Laerm;65202;52.520;10.528;2023-03-14T14:15:33;43.30;37.54;51.75;;
76382;Laerm;65202;52.520;10.528;2023-03-14T14:18:06;46.69;37.25;64.93;;
76382;Laerm;65202;52.520;10.528;2023-03-14T14:20:44;49.91;39.61;68.48;;
76382;Laerm;65202;52.520;10.528;2023-03-14T14:23:20;47.80;40.16;58.50;;
76382;Laerm;65202;52.520;10.528;2023-03-14T14:25:53;46.61;39.09;58.44;;
76382;Laerm;65202;52.520;10.528;2023-03-14T14:28:35;45.61;38.48;60.96;;
76382;Laerm;65202;52.520;10.528;2023-03-14T14:31:23;48.98;37.99;67.67;;
76382;Laerm;65202;52.520;10.528;2023-03-14T14:34:01;44.17;39.11;54.96;;
76382;Laerm;65202;52.520;10.528;2023-03-14T14:36:39;44.07;38.53;56.08;;